Main page
METAR-TAF:

METAR-TAF

Airports :

A.L. Mangham Jr. Regional Airport

Nacogdoches, Texas, United States

latitude: 31-35N, longitude: 094-43W, elevation: 354 ft

Current weather observation

The report was made 20 minutes ago, at 17:56 UTC
Wind 7 mph from the South
Temperature 91°F
Humidity 46%
Pressure 29.96 in. Hg
Visibility: 10 miles
Few clouds at a height of 4700 ft

METAR: KOCH 151756Z AUTO 17006KT 10SM FEW047 33/20 A2996 RMK AO2 SLP146 T03330200 10333 20194 57009

Time: 13:16 (18:16 UTC)


TAF: missing

Weather observations and forecasts of more than 4000 airports (METAR and TAF reports).

The available stations are represented by yellow and red dots on the map.

Hover mouse over dot to see the name of the station.

Then click to see weather observations and forecasts.

To change the map : click on the green buttons with a black cross to zoom in, on the green button with a dash to zoom out, or on the green arrows for adjacent maps.


METAR-TAF: